createdAt,value
2022-07-31T00:00:27.613Z,81.15
2022-07-31T00:02:54.554Z,81.24
2022-07-31T00:05:22.004Z,81.64
2022-07-31T00:07:49.022Z,80.09
2022-07-31T00:10:16.913Z,80.47
2022-07-31T00:12:43.868Z,80.23
2022-07-31T00:15:12.717Z,80.30
2022-07-31T00:17:41.095Z,79.37
2022-07-31T00:20:13.481Z,80.14
2022-07-31T00:22:45.155Z,80.44
2022-07-31T00:25:13.839Z,79.83
2022-07-31T00:27:41.711Z,80.85
2022-07-31T00:30:10.150Z,80.55
2022-07-31T00:32:37.279Z,79.61
2022-07-31T00:35:05.602Z,79.06
2022-07-31T00:37:36.242Z,78.80
2022-07-31T00:40:05.960Z,78.73
2022-07-31T00:42:32.991Z,78.23
2022-07-31T00:45:00.471Z,79.04
2022-07-31T00:47:27.790Z,79.69
2022-07-31T00:49:57.165Z,80.76
2022-07-31T00:52:24.309Z,80.17
2022-07-31T00:54:51.310Z,80.22
2022-07-31T00:57:18.559Z,79.82
2022-07-31T00:59:45.538Z,79.45
2022-07-31T01:02:12.785Z,78.98
2022-07-31T01:04:41.543Z,78.95
2022-07-31T01:07:09.191Z,79.65
2022-07-31T01:09:36.253Z,80.75
2022-07-31T01:12:13.860Z,82.17
2022-07-31T01:14:46.545Z,82.09
2022-07-31T01:17:15.771Z,82.04
2022-07-31T01:19:46.240Z,81.21
2022-07-31T01:22:33.778Z,81.35
2022-07-31T01:25:21.483Z,82.21
2022-07-31T01:28:15.399Z,82.84
2022-07-31T01:30:56.167Z,83.18
2022-07-31T01:33:38.810Z,82.69
2022-07-31T01:36:14.072Z,82.25
2022-07-31T01:38:45.818Z,81.98
2022-07-31T01:41:18.260Z,81.82
2022-07-31T01:43:49.292Z,82.17
2022-07-31T01:46:19.740Z,82.96
2022-07-31T01:48:49.162Z,82.49
2022-07-31T01:51:18.915Z,82.25
2022-07-31T01:53:47.682Z,82.20
2022-07-31T01:56:17.685Z,81.74
2022-07-31T01:58:47.462Z,81.88
2022-07-31T02:01:27.575Z,81.80
2022-07-31T02:04:00.654Z,81.52
2022-07-31T02:06:30.815Z,80.25
2022-07-31T02:09:00.951Z,80.43
2022-07-31T02:11:29.113Z,80.38
2022-07-31T02:13:57.732Z,80.68
2022-07-31T02:16:27.888Z,80.54
2022-07-31T02:19:05.763Z,79.78
2022-07-31T02:21:34.799Z,79.47
2022-07-31T02:24:01.761Z,79.79
2022-07-31T02:26:30.837Z,80.26
2022-07-31T02:28:59.432Z,80.55
2022-07-31T02:31:27.696Z,80.75
2022-07-31T02:33:55.404Z,81.65
2022-07-31T02:36:24.352Z,82.69
2022-07-31T02:38:53.059Z,83.08
2022-07-31T02:41:22.040Z,82.47
2022-07-31T02:43:49.836Z,82.71
2022-07-31T02:46:21.101Z,83.27
2022-07-31T02:48:49.683Z,83.33
2022-07-31T02:51:18.662Z,83.45
2022-07-31T02:53:46.798Z,83.64
2022-07-31T02:56:15.844Z,84.13
2022-07-31T02:58:43.931Z,84.67
2022-07-31T03:01:37.499Z,84.05
2022-07-31T03:04:06.331Z,84.45
2022-07-31T03:06:33.283Z,84.75
2022-07-31T03:09:00.321Z,83.70
2022-07-31T03:11:27.842Z,83.59
2022-07-31T03:13:58.386Z,82.78
2022-07-31T03:16:26.883Z,81.59
2022-07-31T03:18:56.718Z,80.99
2022-07-31T03:21:25.404Z,81.53
2022-07-31T03:23:52.686Z,82.75
2022-07-31T03:26:22.635Z,83.46
2022-07-31T03:28:49.682Z,84.90
2022-07-31T03:31:16.651Z,86.08
2022-07-31T03:33:43.687Z,86.09
2022-07-31T03:36:10.832Z,86.05
2022-07-31T03:38:42.721Z,86.49
2022-07-31T03:41:20.722Z,86.29
2022-07-31T03:43:49.281Z,87.29
2022-07-31T03:46:21.335Z,86.66
2022-07-31T03:48:52.638Z,87.16
2022-07-31T03:51:20.968Z,87.31
2022-07-31T03:53:48.594Z,87.14
2022-07-31T03:56:38.162Z,86.97
2022-07-31T03:59:05.930Z,85.55
2022-07-31T04:02:07.044Z,85.34
2022-07-31T04:04:44.369Z,85.76
2022-07-31T04:07:11.494Z,85.68
2022-07-31T04:09:38.833Z,84.88
2022-07-31T04:12:07.215Z,84.29
2022-07-31T04:14:34.482Z,84.01
2022-07-31T04:17:02.242Z,84.20
2022-07-31T04:19:32.723Z,84.20
2022-07-31T04:22:01.218Z,84.14
2022-07-31T04:24:28.614Z,83.59
2022-07-31T04:27:27.925Z,83.18
2022-07-31T04:29:56.131Z,83.25
2022-07-31T04:32:24.175Z,84.07
2022-07-31T04:34:55.325Z,84.20
2022-07-31T04:37:22.563Z,84.84
2022-07-31T04:39:49.987Z,84.65
2022-07-31T04:42:17.093Z,84.25
2022-07-31T04:44:45.388Z,83.61
2022-07-31T04:47:14.208Z,84.25
2022-07-31T04:49:48.337Z,83.79
2022-07-31T04:52:17.111Z,83.70
2022-07-31T04:54:46.323Z,84.02
2022-07-31T04:57:18.464Z,83.39
2022-07-31T04:59:58.114Z,83.50
2022-07-31T05:02:27.396Z,83.84
2022-07-31T05:04:57.163Z,83.86
2022-07-31T05:07:31.161Z,83.48
2022-07-31T05:10:00.675Z,83.85
2022-07-31T05:12:27.848Z,84.47
2022-07-31T05:14:55.122Z,84.87
2022-07-31T05:17:22.322Z,84.63
2022-07-31T05:20:04.837Z,83.61
2022-07-31T05:22:42.602Z,83.53
2022-07-31T05:25:29.932Z,83.94
2022-07-31T05:27:56.952Z,83.68
2022-07-31T05:30:30.255Z,83.62
2022-07-31T05:32:58.728Z,83.88
2022-07-31T05:35:26.507Z,84.75
2022-07-31T05:37:53.842Z,83.86
2022-07-31T05:40:33.397Z,84.03
2022-07-31T05:43:19.316Z,83.86
2022-07-31T05:46:02.589Z,84.08
2022-07-31T05:48:29.762Z,84.06
2022-07-31T05:50:56.953Z,83.38
2022-07-31T05:53:24.402Z,84.52
2022-07-31T05:56:11.600Z,85.19
2022-07-31T05:58:48.416Z,84.31
2022-07-31T06:01:16.381Z,83.45
2022-07-31T06:03:51.552Z,83.79
2022-07-31T06:06:27.024Z,81.68
2022-07-31T06:08:54.082Z,81.84
2022-07-31T06:11:21.373Z,83.10
2022-07-31T06:13:48.443Z,81.04
2022-07-31T06:16:23.762Z,79.34
2022-07-31T06:18:51.081Z,79.81
2022-07-31T06:23:44.163Z,77.52
2022-07-31T06:26:29.887Z,78.59
2022-07-31T06:28:56.895Z,77.86
2022-07-31T06:31:23.961Z,78.06
2022-07-31T06:33:55.015Z,74.37
2022-07-31T06:36:25.752Z,72.33
2022-07-31T06:38:57.133Z,70.24
2022-07-31T06:41:43.687Z,70.15
2022-07-31T06:44:29.726Z,71.36
2022-07-31T06:47:17.874Z,69.96
2022-07-31T06:50:05.042Z,69.02
2022-07-31T06:52:38.843Z,68.59
2022-07-31T06:55:07.477Z,68.19
2022-07-31T06:57:34.775Z,66.32
2022-07-31T07:00:06.922Z,68.17
2022-07-31T07:02:46.812Z,69.71
2022-07-31T07:05:14.714Z,68.74
2022-07-31T07:07:42.422Z,69.18
2022-07-31T07:10:09.559Z,68.55
2022-07-31T07:13:02.843Z,68.22
2022-07-31T07:15:33.723Z,66.83
2022-07-31T07:18:00.685Z,66.99
2022-07-31T07:20:44.528Z,66.97
2022-07-31T07:23:12.267Z,66.73
2022-07-31T07:25:48.416Z,63.98
2022-07-31T07:28:31.147Z,63.69
2022-07-31T07:31:03.273Z,63.65
2022-07-31T07:33:41.563Z,63.67
2022-07-31T07:36:23.666Z,65.64
2022-07-31T07:39:11.890Z,62.39
2022-07-31T07:41:41.422Z,60.11
2022-07-31T07:44:08.548Z,59.88
2022-07-31T07:46:35.725Z,59.15
2022-07-31T07:49:04.844Z,59.42
2022-07-31T07:51:34.765Z,58.13
2022-07-31T07:54:21.802Z,57.78
2022-07-31T07:57:20.679Z,56.69
2022-07-31T07:59:59.930Z,56.51
2022-07-31T08:03:47.597Z,58.59
2022-07-31T08:05:40.776Z,54.71
2022-07-31T08:08:07.859Z,51.81
2022-07-31T08:10:55.137Z,53.12
2022-07-31T08:13:39.811Z,52.94
2022-07-31T08:16:08.091Z,55.49
2022-07-31T08:18:49.450Z,54.57
2022-07-31T08:21:16.904Z,52.34
2022-07-31T08:23:44.155Z,53.49
2022-07-31T08:26:11.691Z,50.36
2022-07-31T08:28:41.730Z,49.87
2022-07-31T08:31:20.235Z,48.96
2022-07-31T08:34:05.461Z,48.51
2022-07-31T08:36:34.019Z,51.75
2022-07-31T08:39:01.040Z,47.61
2022-07-31T08:41:46.286Z,48.02
2022-07-31T08:44:15.161Z,46.67
2022-07-31T08:46:42.307Z,46.33
2022-07-31T08:49:12.927Z,46.51
2022-07-31T08:51:51.598Z,44.73
2022-07-31T08:54:54.243Z,45.83
2022-07-31T08:57:24.084Z,43.67
2022-07-31T08:59:52.830Z,45.52
2022-07-31T09:02:20.000Z,44.40
2022-07-31T09:05:17.064Z,44.95
2022-07-31T09:07:44.254Z,44.10
2022-07-31T09:10:26.400Z,43.43
2022-07-31T09:12:55.568Z,39.67
2022-07-31T09:15:30.164Z,42.40
2022-07-31T09:18:00.965Z,43.17
2022-07-31T09:20:29.643Z,43.92
2022-07-31T09:23:11.815Z,41.76
2022-07-31T09:25:55.451Z,42.02
2022-07-31T09:28:34.202Z,41.86
2022-07-31T09:31:03.430Z,40.60
2022-07-31T09:33:49.012Z,40.93
2022-07-31T09:36:24.269Z,43.23
2022-07-31T09:38:59.812Z,44.55
2022-07-31T09:41:57.892Z,42.79
2022-07-31T09:44:36.418Z,43.01
2022-07-31T09:47:05.572Z,43.71
2022-07-31T09:49:34.582Z,42.04
2022-07-31T09:52:02.049Z,42.38
2022-07-31T09:54:31.761Z,42.44
2022-07-31T09:56:59.376Z,40.47
2022-07-31T09:59:32.608Z,38.74
2022-07-31T10:02:00.826Z,37.42
2022-07-31T10:04:28.433Z,38.03
2022-07-31T10:06:56.884Z,30.45
2022-07-31T10:09:25.601Z,30.29
2022-07-31T10:12:13.436Z,34.61
2022-07-31T10:14:45.370Z,29.17
2022-07-31T10:17:17.280Z,31.19
2022-07-31T10:20:05.922Z,31.17
2022-07-31T10:22:46.668Z,32.66
2022-07-31T10:25:25.850Z,32.64
2022-07-31T10:27:54.428Z,29.71
2022-07-31T10:30:24.858Z,29.49
2022-07-31T10:32:57.311Z,28.69
2022-07-31T10:36:11.574Z,29.37
2022-07-31T10:39:15.057Z,31.04
2022-07-31T10:42:31.736Z,31.28
2022-07-31T10:45:09.225Z,28.99
2022-07-31T10:48:04.139Z,30.10
2022-07-31T10:51:07.667Z,24.89
2022-07-31T10:54:01.117Z,27.09
2022-07-31T10:56:47.782Z,25.58
2022-07-31T10:59:34.972Z,26.31
2022-07-31T11:02:33.068Z,27.59
2022-07-31T11:05:25.070Z,27.67
2022-07-31T11:08:11.456Z,27.65
2022-07-31T11:10:57.163Z,25.31
2022-07-31T11:13:37.062Z,25.97
2022-07-31T11:16:29.460Z,26.75
2022-07-31T11:19:16.845Z,27.73
2022-07-31T11:21:43.934Z,27.90
2022-07-31T11:24:19.218Z,25.90
2022-07-31T11:26:58.401Z,26.42
2022-07-31T11:30:01.488Z,25.74
2022-07-31T11:32:25.932Z,26.36
2022-07-31T11:34:57.675Z,25.87
2022-07-31T11:37:56.351Z,25.29
2022-07-31T11:40:24.397Z,26.13
2022-07-31T11:43:23.471Z,27.63
2022-07-31T11:45:51.504Z,26.49
2022-07-31T11:48:20.212Z,27.64
2022-07-31T11:50:48.938Z,26.86
2022-07-31T11:53:17.113Z,26.73
2022-07-31T11:55:48.953Z,27.65
2022-07-31T11:58:17.844Z,27.39
2022-07-31T12:01:12.306Z,26.99
2022-07-31T12:03:39.580Z,28.33
2022-07-31T12:06:07.994Z,27.04
2022-07-31T12:08:36.055Z,28.63
2022-07-31T12:11:06.043Z,28.30
2022-07-31T12:13:33.037Z,27.32
2022-07-31T12:16:06.416Z,27.88
2022-07-31T12:18:57.111Z,27.84
2022-07-31T12:21:34.218Z,28.22
2022-07-31T12:24:02.144Z,29.22
2022-07-31T12:26:32.033Z,29.43
2022-07-31T12:29:10.473Z,29.13
2022-07-31T12:31:52.470Z,27.56
2022-07-31T12:34:30.626Z,27.93
2022-07-31T12:37:02.394Z,26.32
2022-07-31T12:39:47.409Z,27.24
2022-07-31T12:42:30.263Z,26.44
2022-07-31T12:45:18.017Z,24.93
2022-07-31T12:47:51.451Z,26.38
2022-07-31T12:50:22.797Z,27.02
2022-07-31T12:52:49.965Z,27.16
2022-07-31T12:55:17.570Z,26.49
2022-07-31T12:57:50.895Z,26.48
2022-07-31T13:00:24.054Z,27.13
2022-07-31T13:02:52.872Z,27.30
2022-07-31T13:05:20.925Z,28.17
2022-07-31T13:07:48.373Z,28.01
2022-07-31T13:10:19.884Z,28.17
2022-07-31T13:12:52.135Z,28.17
2022-07-31T13:15:29.891Z,28.35
2022-07-31T13:17:59.980Z,28.23
2022-07-31T13:20:26.936Z,29.36
2022-07-31T13:22:54.209Z,29.26
2022-07-31T13:25:21.153Z,29.18
2022-07-31T13:27:48.126Z,30.22
2022-07-31T13:30:15.246Z,30.39
2022-07-31T13:32:42.365Z,29.75
2022-07-31T13:35:25.417Z,30.16
2022-07-31T13:37:56.376Z,30.08
2022-07-31T13:40:42.476Z,30.61
2022-07-31T13:43:12.195Z,30.98
2022-07-31T13:45:39.198Z,31.34
2022-07-31T13:48:09.323Z,31.69
2022-07-31T13:50:40.121Z,32.56
2022-07-31T13:53:07.635Z,32.73
2022-07-31T13:55:35.101Z,33.07
2022-07-31T13:58:02.046Z,33.09
2022-07-31T14:00:31.253Z,32.86
2022-07-31T14:02:58.377Z,33.57
2022-07-31T14:05:26.774Z,33.14
2022-07-31T14:07:55.615Z,33.59
2022-07-31T14:10:23.243Z,33.16
2022-07-31T14:12:50.665Z,32.79
2022-07-31T14:15:20.614Z,32.97
2022-07-31T14:17:47.906Z,33.80
2022-07-31T14:20:15.367Z,32.98
2022-07-31T14:22:43.165Z,31.50
2022-07-31T14:25:10.742Z,33.36
2022-07-31T14:27:38.795Z,32.77
2022-07-31T14:30:09.851Z,33.35
2022-07-31T14:32:37.055Z,33.81
2022-07-31T14:35:08.398Z,32.80
2022-07-31T14:37:35.910Z,31.65
2022-07-31T14:40:04.206Z,30.77
2022-07-31T14:42:32.037Z,32.25
2022-07-31T14:44:59.210Z,32.43
2022-07-31T14:47:26.902Z,31.33
2022-07-31T14:50:09.772Z,33.00
2022-07-31T14:52:38.146Z,30.94
2022-07-31T14:55:05.958Z,30.04
2022-07-31T14:57:33.217Z,29.29
2022-07-31T15:00:00.480Z,32.61
2022-07-31T15:02:27.924Z,29.54
2022-07-31T15:04:54.904Z,30.36
2022-07-31T15:07:44.004Z,27.48
2022-07-31T15:10:11.256Z,28.44
2022-07-31T15:12:39.018Z,29.22
2022-07-31T15:15:07.964Z,29.17
2022-07-31T15:17:35.103Z,30.99
2022-07-31T15:20:02.192Z,29.17
2022-07-31T15:22:29.139Z,26.64
2022-07-31T15:24:56.157Z,28.75
2022-07-31T15:27:25.157Z,26.21
2022-07-31T15:30:03.453Z,27.13
2022-07-31T15:32:36.288Z,27.46
2022-07-31T15:35:05.209Z,28.10
2022-07-31T15:37:37.408Z,26.27
2022-07-31T15:40:06.526Z,26.50
2022-07-31T15:42:37.886Z,26.10
2022-07-31T15:45:05.573Z,26.10
2022-07-31T15:47:32.608Z,25.24
2022-07-31T15:49:59.771Z,25.48
2022-07-31T15:52:26.782Z,26.29
2022-07-31T15:54:54.184Z,26.97
2022-07-31T15:57:21.610Z,24.12
2022-07-31T15:59:49.947Z,25.68
2022-07-31T16:02:17.468Z,26.03
2022-07-31T16:04:52.584Z,25.27
2022-07-31T16:08:31.381Z,26.56
2022-07-31T16:10:15.527Z,25.86
2022-07-31T16:12:48.199Z,26.01
2022-07-31T16:15:16.449Z,26.44
2022-07-31T16:17:44.336Z,26.44
2022-07-31T16:20:13.352Z,25.77
2022-07-31T16:23:03.500Z,26.32
2022-07-31T16:25:35.092Z,25.78
2022-07-31T16:28:05.318Z,25.82
2022-07-31T16:30:32.821Z,27.03
2022-07-31T16:32:59.746Z,25.99
2022-07-31T16:35:27.206Z,26.28
2022-07-31T16:37:54.613Z,26.66
2022-07-31T16:40:30.168Z,26.02
2022-07-31T16:43:01.083Z,25.18
2022-07-31T16:45:29.372Z,26.00
2022-07-31T16:47:56.277Z,26.38
2022-07-31T16:50:23.583Z,26.23
2022-07-31T16:52:54.521Z,27.27
2022-07-31T16:55:51.520Z,26.40
2022-07-31T16:58:11.690Z,26.82
2022-07-31T17:00:39.977Z,27.48
2022-07-31T17:03:07.046Z,26.30
2022-07-31T17:05:54.111Z,27.09
2022-07-31T17:08:21.327Z,28.20
2022-07-31T17:10:51.287Z,28.50
2022-07-31T17:13:21.798Z,28.56
2022-07-31T17:15:48.785Z,28.45
2022-07-31T17:18:15.726Z,28.53
2022-07-31T17:20:47.313Z,29.08
2022-07-31T17:23:14.856Z,29.58
2022-07-31T17:25:42.742Z,28.27
2022-07-31T17:28:13.425Z,29.15
2022-07-31T17:30:45.030Z,29.56
2022-07-31T17:33:13.165Z,27.99
2022-07-31T17:35:40.613Z,28.88
2022-07-31T17:38:07.855Z,30.18
2022-07-31T17:40:43.609Z,30.01
2022-07-31T17:43:10.996Z,31.68
2022-07-31T17:45:59.353Z,31.79
2022-07-31T17:48:28.366Z,31.16
2022-07-31T17:50:55.337Z,31.60
2022-07-31T17:53:23.878Z,32.18
2022-07-31T17:55:58.209Z,31.51
2022-07-31T17:58:25.308Z,31.30
2022-07-31T18:00:53.271Z,31.68
2022-07-31T18:03:20.306Z,32.49
2022-07-31T18:05:47.386Z,33.49
2022-07-31T18:08:14.353Z,33.95
2022-07-31T18:10:53.989Z,33.86
2022-07-31T18:13:22.190Z,34.14
2022-07-31T18:15:49.107Z,34.17
2022-07-31T18:18:16.453Z,34.11
2022-07-31T18:20:45.391Z,35.37
2022-07-31T18:23:12.665Z,36.26
2022-07-31T18:25:41.641Z,35.66
2022-07-31T18:28:09.218Z,36.49
2022-07-31T18:30:38.899Z,37.68
2022-07-31T18:33:06.295Z,38.66
2022-07-31T18:35:33.421Z,38.74
2022-07-31T18:38:01.199Z,39.27
2022-07-31T18:40:28.346Z,39.05
2022-07-31T18:42:55.449Z,39.14
2022-07-31T18:45:23.685Z,41.47
2022-07-31T18:47:51.484Z,40.99
2022-07-31T18:51:02.243Z,40.16
2022-07-31T18:53:05.382Z,40.96
2022-07-31T18:55:32.316Z,43.01
2022-07-31T18:57:59.333Z,44.84
2022-07-31T19:00:26.536Z,45.10
2022-07-31T19:02:54.303Z,45.21
2022-07-31T19:05:21.986Z,46.49
2022-07-31T19:07:49.857Z,46.62
2022-07-31T19:10:29.758Z,47.29
2022-07-31T19:12:59.535Z,47.11
2022-07-31T19:15:26.541Z,47.83
2022-07-31T19:17:58.391Z,48.39
2022-07-31T19:20:41.365Z,48.97
2022-07-31T19:23:14.873Z,49.55
2022-07-31T19:26:02.561Z,49.67
2022-07-31T19:28:34.468Z,50.29
2022-07-31T19:31:01.710Z,50.63
2022-07-31T19:33:28.835Z,50.69
2022-07-31T19:36:01.389Z,51.22
2022-07-31T19:38:32.185Z,51.39
2022-07-31T19:40:59.817Z,51.21
2022-07-31T19:43:27.719Z,51.54
2022-07-31T19:46:09.884Z,51.32
2022-07-31T19:48:44.037Z,52.58
2022-07-31T19:51:12.735Z,53.00
2022-07-31T19:53:40.675Z,52.52
2022-07-31T19:56:08.447Z,52.35
2022-07-31T19:58:36.847Z,51.88
2022-07-31T20:01:05.592Z,51.27
2022-07-31T20:03:33.752Z,51.65
2022-07-31T20:06:02.387Z,52.38
2022-07-31T20:08:29.768Z,52.87
2022-07-31T20:11:04.153Z,52.50
2022-07-31T20:13:35.078Z,53.14
2022-07-31T20:16:02.326Z,53.07
2022-07-31T20:18:30.035Z,53.21
2022-07-31T20:21:00.622Z,53.63
2022-07-31T20:23:28.213Z,53.50
2022-07-31T20:25:55.252Z,53.32
2022-07-31T20:28:22.576Z,53.36
2022-07-31T20:30:49.827Z,53.39
2022-07-31T20:33:16.895Z,53.93
2022-07-31T20:35:48.102Z,54.40
2022-07-31T20:38:22.307Z,54.14
2022-07-31T20:40:53.548Z,53.89
2022-07-31T20:43:27.371Z,53.87
2022-07-31T20:45:59.349Z,53.84
2022-07-31T20:48:34.990Z,54.25
2022-07-31T20:51:04.217Z,53.71
2022-07-31T20:53:32.263Z,54.07
2022-07-31T20:55:59.493Z,53.85
2022-07-31T20:58:26.976Z,54.28
2022-07-31T21:00:54.520Z,53.85
2022-07-31T21:03:22.336Z,54.96
2022-07-31T21:05:49.620Z,56.02
2022-07-31T21:08:17.416Z,56.62
2022-07-31T21:10:45.025Z,57.18
2022-07-31T21:13:12.612Z,57.77
2022-07-31T21:15:44.158Z,57.31
2022-07-31T21:18:12.986Z,57.59
2022-07-31T21:20:50.079Z,57.68
2022-07-31T21:23:22.990Z,58.20
2022-07-31T21:25:51.792Z,58.68
2022-07-31T21:28:19.179Z,58.73
2022-07-31T21:30:47.001Z,58.50
2022-07-31T21:33:14.496Z,58.83
2022-07-31T21:35:41.815Z,58.90
2022-07-31T21:38:12.736Z,58.67
2022-07-31T21:40:40.942Z,59.32
2022-07-31T21:43:09.239Z,59.72
2022-07-31T21:45:55.344Z,60.31
2022-07-31T21:48:25.439Z,61.17
2022-07-31T21:50:53.735Z,60.85
2022-07-31T21:53:21.976Z,60.07
2022-07-31T21:55:49.443Z,60.32
2022-07-31T21:58:16.970Z,60.04
2022-07-31T22:00:45.017Z,60.53
2022-07-31T22:03:12.527Z,60.74
2022-07-31T22:05:57.786Z,60.73
2022-07-31T22:08:24.931Z,61.93
2022-07-31T22:10:52.824Z,62.26
2022-07-31T22:13:20.640Z,62.31
2022-07-31T22:15:58.263Z,62.47
2022-07-31T22:18:30.454Z,63.33
2022-07-31T22:20:59.045Z,64.28
2022-07-31T22:23:27.831Z,64.22
2022-07-31T22:25:55.610Z,64.39
2022-07-31T22:28:24.074Z,64.01
2022-07-31T22:30:52.230Z,64.66
2022-07-31T22:33:20.018Z,64.75
2022-07-31T22:35:58.727Z,65.01
2022-07-31T22:38:29.998Z,64.69
2022-07-31T22:40:59.007Z,65.30
2022-07-31T22:44:13.153Z,65.97
2022-07-31T22:46:14.048Z,66.26
2022-07-31T22:48:41.566Z,65.82
2022-07-31T22:51:14.467Z,65.86
2022-07-31T22:53:43.977Z,66.28
2022-07-31T22:56:11.221Z,66.75
2022-07-31T22:58:38.370Z,66.99
2022-07-31T23:01:05.490Z,67.39
2022-07-31T23:03:32.573Z,67.32
2022-07-31T23:06:03.634Z,67.42
2022-07-31T23:08:53.572Z,67.86
2022-07-31T23:11:22.615Z,67.72
2022-07-31T23:13:49.580Z,67.69
2022-07-31T23:16:16.731Z,67.57
2022-07-31T23:18:43.717Z,67.55
2022-07-31T23:21:10.854Z,66.88
2022-07-31T23:23:38.610Z,67.24
2022-07-31T23:26:05.756Z,67.48
2022-07-31T23:28:34.129Z,67.86
2022-07-31T23:31:01.235Z,67.81
2022-07-31T23:33:28.227Z,67.96
2022-07-31T23:35:55.322Z,68.51
2022-07-31T23:38:22.380Z,68.21
2022-07-31T23:40:49.407Z,68.08
2022-07-31T23:43:20.901Z,68.34
2022-07-31T23:45:48.251Z,68.78
2022-07-31T23:48:15.656Z,69.00
2022-07-31T23:50:44.134Z,69.41
2022-07-31T23:53:11.094Z,68.28
2022-07-31T23:55:42.682Z,68.44
2022-07-31T23:58:10.671Z,67.85
